Pagrindinis puslapis
METAR-TAF:

METAR-TAF

Oro uostai :

Mysore, Indija

platuma: 12-13-48N, ilguma: 76-39-21E, Aukštis: 715 m

Dabartinis oras

Ataskaita buvo paskelbta 2 valandos ir 43 minutes, ne 14:00 UTC
Vėjas 8 kt iš Vakarų
Temperatūra 25°C
Drėgmė 79%
Slėgis 1013 hPa
Matomumas: 8000 m
Išsisklaidę debesys ne aukštis 1500 ft
Išsisklaidę debesys ne aukštis 8000 ft

METAR: VOMY 241400Z 27008KT 8000 SCT015 SCT080 25/21 Q1013

Laikas: 22:13 (16:43 UTC)

Prognozė

Ataskaita buvo paskelbta 8 valandos ir 43 minutes, ne 08:00 UTC
Prognozė galioja nuo 24 metu 09 UTC su 24 metu 18 UTC
Vėjas 10 kt iš Vakarų
Matomumas: 6000 m
Išsisklaidę debesys ne aukštis 1200 ft
Laikinai
nuo 24 metu 12 UTC su 24 metu 18 UTC
Matomumas: 4000 m
Išsisklaidę debesys ne aukštis 800 ft
Išsisklaidę debesys ne aukštis 1200 ft
Mažai debesys ne aukštis 2500 ft, Liūtiniai kamuoliniai debesys.
Su prošvaistėmis ne aukštis 8000 ft
lietus, dulksna

TAF: VOMY 240800Z 2409/2418 27010KT 6000 SCT012 TEMPO 2412/2418 4000 RA DZ SCT008 SCT012 FEW025CB BKN080

Orai ataskaitas ir orų prognozės (METAR, TAF).

turimą stotys yra geltonos ir raudonos taškus žemėlapyje.

Perkelti pele per norėdami pamatyti stoties vardą.

Tada spustelėkite, norėdami matyti oro stebėjimo ir prognozės.

Norėdami pakeisti žemėlapį: spustelėkite ant žalios mygtukų su juodo kryžiaus žemyn,; žalią mygtuką su brūkšneliu, jei norite nutolinti; arba žalių rodyklių gretimoms žemėlapius.


METAR-TAF: